sensor_id;sensor_type;location;lat;lon;timestamp;pressure;altitude;pressure_sealevel;temperature;humidity
11499;BME280;5806;48.748;9.278;2023-05-22T00:01:37;100759.29;;;17.06;85.04
11499;BME280;5806;48.748;9.278;2023-05-22T00:04:04;100754.85;;;17.10;84.58
11499;BME280;5806;48.748;9.278;2023-05-22T00:06:32;100749.34;;;17.07;84.54
11499;BME280;5806;48.748;9.278;2023-05-22T00:08:59;100746.05;;;17.00;84.95
11499;BME280;5806;48.748;9.278;2023-05-22T00:11:27;100743.05;;;16.94;85.34
11499;BME280;5806;48.748;9.278;2023-05-22T00:13:54;100743.62;;;16.89;85.58
11499;BME280;5806;48.748;9.278;2023-05-22T00:16:23;100738.41;;;16.82;85.74
11499;BME280;5806;48.748;9.278;2023-05-22T00:18:51;100734.81;;;16.82;85.87
11499;BME280;5806;48.748;9.278;2023-05-22T00:21:18;100733.71;;;16.80;85.79
11499;BME280;5806;48.748;9.278;2023-05-22T00:23:48;100729.56;;;16.80;85.65
11499;BME280;5806;48.748;9.278;2023-05-22T00:26:15;100725.47;;;16.73;85.98
11499;BME280;5806;48.748;9.278;2023-05-22T00:28:42;100725.44;;;16.78;85.60
11499;BME280;5806;48.748;9.278;2023-05-22T00:31:10;100727.64;;;16.81;85.32
11499;BME280;5806;48.748;9.278;2023-05-22T00:33:38;100730.70;;;16.77;85.67
11499;BME280;5806;48.748;9.278;2023-05-22T00:36:05;100724.61;;;16.75;85.61
11499;BME280;5806;48.748;9.278;2023-05-22T00:38:34;100721.07;;;16.64;86.14
11499;BME280;5806;48.748;9.278;2023-05-22T00:41:04;100716.91;;;16.67;85.93
11499;BME280;5806;48.748;9.278;2023-05-22T00:43:32;100719.41;;;16.66;85.80
11499;BME280;5806;48.748;9.278;2023-05-22T00:46:00;100720.78;;;16.68;85.63
11499;BME280;5806;48.748;9.278;2023-05-22T00:48:28;100717.50;;;16.64;85.89
11499;BME280;5806;48.748;9.278;2023-05-22T00:50:57;100714.44;;;16.70;85.57
11499;BME280;5806;48.748;9.278;2023-05-22T00:53:28;100715.81;;;16.70;85.44
11499;BME280;5806;48.748;9.278;2023-05-22T00:55:58;100717.23;;;16.63;85.65
11499;BME280;5806;48.748;9.278;2023-05-22T00:58:26;100715.03;;;16.60;85.75
11499;BME280;5806;48.748;9.278;2023-05-22T01:00:54;100715.86;;;16.63;85.74
11499;BME280;5806;48.748;9.278;2023-05-22T01:03:24;100717.52;;;16.54;86.18
11499;BME280;5806;48.748;9.278;2023-05-22T01:05:55;100715.85;;;16.58;86.07
11499;BME280;5806;48.748;9.278;2023-05-22T01:08:22;100719.47;;;16.56;86.17
11499;BME280;5806;48.748;9.278;2023-05-22T01:10:53;100712.84;;;16.54;86.22
11499;BME280;5806;48.748;9.278;2023-05-22T01:13:59;100710.61;;;16.61;85.89
11499;BME280;5806;48.748;9.278;2023-05-22T01:16:36;100715.30;;;16.61;85.75
11499;BME280;5806;48.748;9.278;2023-05-22T01:19:17;100719.47;;;16.56;85.85
11499;BME280;5806;48.748;9.278;2023-05-22T01:22:00;100718.91;;;16.51;86.05
11499;BME280;5806;48.748;9.278;2023-05-22T01:24:52;100715.61;;;16.52;86.07
11499;BME280;5806;48.748;9.278;2023-05-22T01:27:29;100715.05;;;16.57;85.66
11499;BME280;5806;48.748;9.278;2023-05-22T01:30:15;100720.00;;;16.55;85.64
11499;BME280;5806;48.748;9.278;2023-05-22T01:32:37;100720.86;;;16.53;85.34
11499;BME280;5806;48.748;9.278;2023-05-22T01:35:08;100731.61;;;16.50;85.60
11499;BME280;5806;48.748;9.278;2023-05-22T01:37:38;100724.20;;;16.43;85.95
11499;BME280;5806;48.748;9.278;2023-05-22T01:40:06;100726.12;;;16.45;85.76
11499;BME280;5806;48.748;9.278;2023-05-22T01:42:34;100728.06;;;16.47;85.51
11499;BME280;5806;48.748;9.278;2023-05-22T01:45:02;100731.06;;;16.53;85.19
11499;BME280;5806;48.748;9.278;2023-05-22T01:47:29;100736.06;;;16.41;85.90
11499;BME280;5806;48.748;9.278;2023-05-22T01:49:59;100729.73;;;16.43;85.84
11499;BME280;5806;48.748;9.278;2023-05-22T01:55:14;100731.66;;;16.42;85.62
11499;BME280;5806;48.748;9.278;2023-05-22T01:57:45;100729.16;;;16.36;86.07
11499;BME280;5806;48.748;9.278;2023-05-22T02:00:14;100730.00;;;16.26;86.67
11499;BME280;5806;48.748;9.278;2023-05-22T02:02:48;100724.73;;;16.30;86.33
11499;BME280;5806;48.748;9.278;2023-05-22T02:05:18;100727.52;;;16.22;86.57
11499;BME280;5806;48.748;9.278;2023-05-22T02:07:48;100729.16;;;16.26;86.57
11499;BME280;5806;48.748;9.278;2023-05-22T02:10:17;100716.22;;;16.21;86.65
11499;BME280;5806;48.748;9.278;2023-05-22T02:12:47;100717.88;;;16.20;86.59
11499;BME280;5806;48.748;9.278;2023-05-22T02:15:14;100715.92;;;16.20;86.54
11499;BME280;5806;48.748;9.278;2023-05-22T02:17:42;100715.37;;;16.21;86.29
11499;BME280;5806;48.748;9.278;2023-05-22T02:20:13;100716.48;;;16.22;86.02
11499;BME280;5806;48.748;9.278;2023-05-22T02:22:45;100711.25;;;16.18;86.02
11499;BME280;5806;48.748;9.278;2023-05-22T02:25:14;100709.88;;;16.16;86.15
11499;BME280;5806;48.748;9.278;2023-05-22T02:27:46;100693.34;;;16.01;86.11
11499;BME280;5806;48.748;9.278;2023-05-22T02:30:15;100722.03;;;16.05;86.80
11499;BME280;5806;48.748;9.278;2023-05-22T02:32:43;100720.66;;;16.00;87.32
11499;BME280;5806;48.748;9.278;2023-05-22T02:35:10;100714.59;;;16.05;86.83
11499;BME280;5806;48.748;9.278;2023-05-22T02:37:39;100713.23;;;16.00;86.68
11499;BME280;5806;48.748;9.278;2023-05-22T02:40:09;100711.00;;;16.02;86.29
11499;BME280;5806;48.748;9.278;2023-05-22T02:42:36;100711.57;;;15.92;86.50
11499;BME280;5806;48.748;9.278;2023-05-22T02:45:06;100707.41;;;15.99;86.20
11499;BME280;5806;48.748;9.278;2023-05-22T02:47:34;100704.66;;;15.97;85.99
11499;BME280;5806;48.748;9.278;2023-05-22T02:50:01;100704.92;;;15.98;85.65
11499;BME280;5806;48.748;9.278;2023-05-22T02:52:29;100700.52;;;15.97;85.70
11499;BME280;5806;48.748;9.278;2023-05-22T02:54:56;100701.36;;;15.97;85.42
11499;BME280;5806;48.748;9.278;2023-05-22T02:57:24;100699.15;;;15.94;85.46
11499;BME280;5806;48.748;9.278;2023-05-22T02:59:52;100691.44;;;15.86;85.58
11499;BME280;5806;48.748;9.278;2023-05-22T03:02:19;100689.52;;;15.87;85.57
11499;BME280;5806;48.748;9.278;2023-05-22T03:04:48;100696.12;;;15.83;86.02
11499;BME280;5806;48.748;9.278;2023-05-22T03:07:16;100693.35;;;15.86;85.67
11499;BME280;5806;48.748;9.278;2023-05-22T03:09:45;100693.91;;;15.78;86.12
11499;BME280;5806;48.748;9.278;2023-05-22T03:12:14;100683.18;;;15.79;85.71
11499;BME280;5806;48.748;9.278;2023-05-22T03:14:42;100685.38;;;15.77;85.62
11499;BME280;5806;48.748;9.278;2023-05-22T03:17:09;100693.67;;;15.67;86.17
11499;BME280;5806;48.748;9.278;2023-05-22T03:19:37;100688.95;;;15.67;86.63
11499;BME280;5806;48.748;9.278;2023-05-22T03:22:04;100688.41;;;15.50;87.02
11499;BME280;5806;48.748;9.278;2023-05-22T03:24:32;100693.92;;;15.58;86.31
11499;BME280;5806;48.748;9.278;2023-05-22T03:27:00;100691.98;;;15.66;85.90
11499;BME280;5806;48.748;9.278;2023-05-22T03:29:27;100685.38;;;15.59;85.65
11499;BME280;5806;48.748;9.278;2023-05-22T03:31:56;100691.16;;;15.58;85.73
11499;BME280;5806;48.748;9.278;2023-05-22T03:34:25;100684.83;;;15.45;86.30
11499;BME280;5806;48.748;9.278;2023-05-22T03:36:52;100688.68;;;15.54;85.83
11499;BME280;5806;48.748;9.278;2023-05-22T03:39:20;100695.03;;;15.52;85.82
11499;BME280;5806;48.748;9.278;2023-05-22T03:41:47;100696.69;;;15.45;85.85
11499;BME280;5806;48.748;9.278;2023-05-22T03:44:15;100694.20;;;15.51;85.13
11499;BME280;5806;48.748;9.278;2023-05-22T03:46:42;100701.91;;;15.42;85.80
11499;BME280;5806;48.748;9.278;2023-05-22T03:49:10;100701.64;;;15.61;85.08
11499;BME280;5806;48.748;9.278;2023-05-22T03:51:37;100706.90;;;15.55;84.81
11499;BME280;5806;48.748;9.278;2023-05-22T03:54:05;100708.81;;;15.52;84.93
11499;BME280;5806;48.748;9.278;2023-05-22T03:56:33;100707.17;;;15.48;84.66
11499;BME280;5806;48.748;9.278;2023-05-22T03:59:00;100704.13;;;15.42;85.16
11499;BME280;5806;48.748;9.278;2023-05-22T04:01:28;100706.04;;;15.37;85.32
11499;BME280;5806;48.748;9.278;2023-05-22T04:03:56;100704.69;;;15.44;85.08
11499;BME280;5806;48.748;9.278;2023-05-22T04:06:23;100706.88;;;15.42;85.45
11499;BME280;5806;48.748;9.278;2023-05-22T04:08:51;100703.59;;;15.43;85.39
11499;BME280;5806;48.748;9.278;2023-05-22T04:11:19;100715.92;;;15.33;85.75
11499;BME280;5806;48.748;9.278;2023-05-22T04:13:48;100713.17;;;15.33;85.88
11499;BME280;5806;48.748;9.278;2023-05-22T04:16:19;100715.98;;;15.40;85.88
11499;BME280;5806;48.748;9.278;2023-05-22T04:18:48;100721.50;;;15.40;85.79
11499;BME280;5806;48.748;9.278;2023-05-22T04:21:16;100731.14;;;15.48;85.54
11499;BME280;5806;48.748;9.278;2023-05-22T04:23:44;100731.41;;;15.51;85.32
11499;BME280;5806;48.748;9.278;2023-05-22T04:26:11;100736.12;;;15.48;85.29
11499;BME280;5806;48.748;9.278;2023-05-22T04:28:41;100734.17;;;15.44;85.49
11499;BME280;5806;48.748;9.278;2023-05-22T04:31:09;100739.69;;;15.46;85.48
11499;BME280;5806;48.748;9.278;2023-05-22T04:33:37;100741.36;;;15.55;85.02
11499;BME280;5806;48.748;9.278;2023-05-22T04:36:06;100744.12;;;15.55;84.93
11499;BME280;5806;48.748;9.278;2023-05-22T04:38:35;100750.17;;;15.54;85.11
11499;BME280;5806;48.748;9.278;2023-05-22T04:41:03;100747.41;;;15.49;85.39
11499;BME280;5806;48.748;9.278;2023-05-22T04:43:30;100742.47;;;15.59;84.96
11499;BME280;5806;48.748;9.278;2023-05-22T04:45:59;100742.47;;;15.59;84.94
11499;BME280;5806;48.748;9.278;2023-05-22T04:48:26;100744.12;;;15.55;85.27
11499;BME280;5806;48.748;9.278;2023-05-22T04:50:54;100746.58;;;15.49;85.48
11499;BME280;5806;48.748;9.278;2023-05-22T04:53:22;100748.22;;;15.50;85.57
11499;BME280;5806;48.748;9.278;2023-05-22T04:55:50;100748.52;;;15.58;85.16
11499;BME280;5806;48.748;9.278;2023-05-22T04:58:17;100746.61;;;15.56;85.24
11499;BME280;5806;48.748;9.278;2023-05-22T05:00:45;100749.09;;;15.63;85.09
11499;BME280;5806;48.748;9.278;2023-05-22T05:03:12;100745.22;;;15.61;85.35
11499;BME280;5806;48.748;9.278;2023-05-22T05:05:40;100746.33;;;15.63;85.52
11499;BME280;5806;48.748;9.278;2023-05-22T05:08:07;100747.97;;;15.66;85.43
11499;BME280;5806;48.748;9.278;2023-05-22T05:10:35;100751.55;;;15.62;85.77
11499;BME280;5806;48.748;9.278;2023-05-22T05:13:02;100755.16;;;15.75;85.40
11499;BME280;5806;48.748;9.278;2023-05-22T05:15:30;100752.41;;;15.77;85.32
11499;BME280;5806;48.748;9.278;2023-05-22T05:17:57;100751.55;;;15.82;85.33
11499;BME280;5806;48.748;9.278;2023-05-22T05:20:25;100760.11;;;15.93;85.42
11499;BME280;5806;48.748;9.278;2023-05-22T05:22:52;100754.31;;;15.97;85.31
11499;BME280;5806;48.748;9.278;2023-05-22T05:25:20;100751.56;;;15.94;85.95
11499;BME280;5806;48.748;9.278;2023-05-22T05:27:47;100757.89;;;15.90;87.04
11499;BME280;5806;48.748;9.278;2023-05-22T05:30:15;100757.08;;;16.09;86.08
11499;BME280;5806;48.748;9.278;2023-05-22T05:32:44;100749.90;;;16.13;85.72
11499;BME280;5806;48.748;9.278;2023-05-22T05:35:11;100754.30;;;16.17;85.88
11499;BME280;5806;48.748;9.278;2023-05-22T05:37:39;100758.45;;;16.14;86.55
11499;BME280;5806;48.748;9.278;2023-05-22T05:40:07;100755.39;;;16.21;86.50
11499;BME280;5806;48.748;9.278;2023-05-22T05:42:35;100761.45;;;16.33;86.06
11499;BME280;5806;48.748;9.278;2023-05-22T05:45:03;100762.00;;;16.37;85.53
11499;BME280;5806;48.748;9.278;2023-05-22T05:47:30;100765.56;;;16.40;85.88
11499;BME280;5806;48.748;9.278;2023-05-22T05:49:58;100766.14;;;16.40;86.26
11499;BME280;5806;48.748;9.278;2023-05-22T05:52:26;100767.22;;;16.54;85.45
11499;BME280;5806;48.748;9.278;2023-05-22T05:54:55;100766.38;;;16.61;85.43
11499;BME280;5806;48.748;9.278;2023-05-22T05:57:22;100768.02;;;16.72;84.87
11499;BME280;5806;48.748;9.278;2023-05-22T05:59:49;100769.12;;;16.73;84.56
11499;BME280;5806;48.748;9.278;2023-05-22T06:02:17;100775.98;;;16.81;84.60
11499;BME280;5806;48.748;9.278;2023-05-22T06:04:44;100766.34;;;16.76;84.73
11499;BME280;5806;48.748;9.278;2023-05-22T06:07:15;100778.98;;;16.87;85.03
11499;BME280;5806;48.748;9.278;2023-05-22T06:09:42;100776.52;;;16.88;85.14
11499;BME280;5806;48.748;9.278;2023-05-22T06:12:10;100777.31;;;16.91;85.82
11499;BME280;5806;48.748;9.278;2023-05-22T06:14:39;100774.24;;;17.02;85.29
11499;BME280;5806;48.748;9.278;2023-05-22T06:17:06;100774.79;;;17.02;84.65
11499;BME280;5806;48.748;9.278;2023-05-22T06:19:34;100776.98;;;17.07;84.11
11499;BME280;5806;48.748;9.278;2023-05-22T06:22:02;100772.59;;;17.01;84.25
11499;BME280;5806;48.748;9.278;2023-05-22T06:24:29;100779.77;;;17.02;84.84
11499;BME280;5806;48.748;9.278;2023-05-22T06:26:57;100779.69;;;17.15;84.40
11499;BME280;5806;48.748;9.278;2023-05-22T06:29:25;100791.59;;;17.15;83.78
11499;BME280;5806;48.748;9.278;2023-05-22T06:31:52;100784.13;;;17.16;83.89
11499;BME280;5806;48.748;9.278;2023-05-22T06:34:20;100791.86;;;17.14;83.88
11499;BME280;5806;48.748;9.278;2023-05-22T06:36:48;100780.28;;;17.07;84.09
11499;BME280;5806;48.748;9.278;2023-05-22T06:39:18;100786.32;;;17.16;84.07
11499;BME280;5806;48.748;9.278;2023-05-22T06:41:46;100791.62;;;17.10;83.97
11499;BME280;5806;48.748;9.278;2023-05-22T06:44:14;100791.60;;;17.13;84.00
11499;BME280;5806;48.748;9.278;2023-05-22T06:46:41;100800.14;;;17.16;83.63
11499;BME280;5806;48.748;9.278;2023-05-22T06:49:08;100804.86;;;17.11;84.22
11499;BME280;5806;48.748;9.278;2023-05-22T06:51:36;100803.23;;;17.07;84.44
11499;BME280;5806;48.748;9.278;2023-05-22T06:54:03;100811.24;;;17.09;84.18
11499;BME280;5806;48.748;9.278;2023-05-22T06:56:32;100809.58;;;17.10;84.20
11499;BME280;5806;48.748;9.278;2023-05-22T06:59:00;100812.92;;;17.05;84.35
11499;BME280;5806;48.748;9.278;2023-05-22T07:01:27;100810.42;;;17.06;84.24
11499;BME280;5806;48.748;9.278;2023-05-22T07:03:56;100813.99;;;17.11;83.99
11499;BME280;5806;48.748;9.278;2023-05-22T07:06:24;100817.33;;;17.06;84.15
11499;BME280;5806;48.748;9.278;2023-05-22T07:08:51;100811.98;;;17.24;83.56
11499;BME280;5806;48.748;9.278;2023-05-22T07:11:19;100813.67;;;17.20;83.80
11499;BME280;5806;48.748;9.278;2023-05-22T07:13:46;100819.48;;;17.19;83.34
11499;BME280;5806;48.748;9.278;2023-05-22T07:16:14;100820.81;;;17.31;83.17
11499;BME280;5806;48.748;9.278;2023-05-22T07:18:41;100817.00;;;17.15;83.57
11499;BME280;5806;48.748;9.278;2023-05-22T07:21:10;100821.70;;;17.19;83.78
11499;BME280;5806;48.748;9.278;2023-05-22T07:23:38;100823.89;;;17.25;83.80
11499;BME280;5806;48.748;9.278;2023-05-22T07:26:06;100821.43;;;17.18;83.42
11499;BME280;5806;48.748;9.278;2023-05-22T07:28:35;100816.70;;;17.26;83.29
11499;BME280;5806;48.748;9.278;2023-05-22T07:31:02;100820.52;;;17.35;83.25
11499;BME280;5806;48.748;9.278;2023-05-22T07:33:30;100821.14;;;17.22;83.41
11499;BME280;5806;48.748;9.278;2023-05-22T07:35:57;100827.23;;;17.17;83.90
11499;BME280;5806;48.748;9.278;2023-05-22T07:38:25;100831.66;;;17.18;83.98
11499;BME280;5806;48.748;9.278;2023-05-22T07:40:52;100831.11;;;17.18;83.55
11499;BME280;5806;48.748;9.278;2023-05-22T07:43:19;100832.78;;;17.14;83.69
11499;BME280;5806;48.748;9.278;2023-05-22T07:45:47;100834.70;;;17.14;83.58
11499;BME280;5806;48.748;9.278;2023-05-22T07:48:14;100839.94;;;17.18;83.87
11499;BME280;5806;48.748;9.278;2023-05-22T07:50:42;100836.64;;;17.11;83.80
11499;BME280;5806;48.748;9.278;2023-05-22T07:53:10;100842.44;;;17.17;83.44
11499;BME280;5806;48.748;9.278;2023-05-22T07:55:38;100838.33;;;17.04;84.34
11499;BME280;5806;48.748;9.278;2023-05-22T07:58:05;100838.30;;;17.17;83.31
11499;BME280;5806;48.748;9.278;2023-05-22T08:00:33;100845.47;;;17.18;83.17
11499;BME280;5806;48.748;9.278;2023-05-22T08:03:01;100848.47;;;17.29;82.71
11499;BME280;5806;48.748;9.278;2023-05-22T08:05:28;100855.65;;;17.30;82.77
11499;BME280;5806;48.748;9.278;2023-05-22T08:07:56;100855.68;;;17.25;84.04
11499;BME280;5806;48.748;9.278;2023-05-22T08:10:23;100850.93;;;17.35;82.71
11499;BME280;5806;48.748;9.278;2023-05-22T08:12:50;100852.58;;;17.36;82.34
11499;BME280;5806;48.748;9.278;2023-05-22T08:15:18;100841.81;;;17.42;82.15
11499;BME280;5806;48.748;9.278;2023-05-22T08:17:46;100852.05;;;17.34;82.46
11499;BME280;5806;48.748;9.278;2023-05-22T08:20:14;100845.92;;;17.47;82.52
11499;BME280;5806;48.748;9.278;2023-05-22T08:22:41;100847.84;;;17.47;81.86
11499;BME280;5806;48.748;9.278;2023-05-22T08:25:09;100850.35;;;17.46;81.86
11499;BME280;5806;48.748;9.278;2023-05-22T08:27:36;100853.12;;;17.46;82.40
11499;BME280;5806;48.748;9.278;2023-05-22T08:30:04;100844.84;;;17.38;82.50
11499;BME280;5806;48.748;9.278;2023-05-22T08:32:32;100854.23;;;17.35;82.92
11499;BME280;5806;48.748;9.278;2023-05-22T08:34:59;100855.34;;;17.36;82.53
11499;BME280;5806;48.748;9.278;2023-05-22T08:37:27;100851.14;;;17.54;81.56
11499;BME280;5806;48.748;9.278;2023-05-22T08:39:54;100852.48;;;17.59;81.73
11499;BME280;5806;48.748;9.278;2023-05-22T08:42:22;100857.73;;;17.60;82.31
11499;BME280;5806;48.748;9.278;2023-05-22T08:44:50;100853.12;;;17.46;80.98
11499;BME280;5806;48.748;9.278;2023-05-22T08:47:18;100847.34;;;17.42;81.61
11499;BME280;5806;48.748;9.278;2023-05-22T08:49:47;100851.42;;;17.52;82.05
11499;BME280;5806;48.748;9.278;2023-05-22T08:52:22;100859.50;;;17.44;82.74
11499;BME280;5806;48.748;9.278;2023-05-22T08:54:53;100858.91;;;17.52;81.99
11499;BME280;5806;48.748;9.278;2023-05-22T08:57:21;100858.91;;;17.52;82.36
11499;BME280;5806;48.748;9.278;2023-05-22T08:59:49;100854.74;;;17.54;81.90
11499;BME280;5806;48.748;9.278;2023-05-22T09:02:17;100856.38;;;17.58;82.26
11499;BME280;5806;48.748;9.278;2023-05-22T09:04:45;100863.25;;;17.63;81.88
11499;BME280;5806;48.748;9.278;2023-05-22T09:07:13;100864.93;;;17.64;81.20
11499;BME280;5806;48.748;9.278;2023-05-22T09:09:40;100862.66;;;17.71;80.79
11499;BME280;5806;48.748;9.278;2023-05-22T09:12:09;100861.85;;;17.65;80.69
11499;BME280;5806;48.748;9.278;2023-05-22T09:14:42;100865.77;;;17.59;81.90
11499;BME280;5806;48.748;9.278;2023-05-22T09:17:14;100865.41;;;17.76;80.83
11499;BME280;5806;48.748;9.278;2023-05-22T09:19:44;100868.74;;;17.73;79.96
11499;BME280;5806;48.748;9.278;2023-05-22T09:22:12;100864.34;;;17.67;80.23
11499;BME280;5806;48.748;9.278;2023-05-22T09:24:41;100866.78;;;17.73;79.37
11499;BME280;5806;48.748;9.278;2023-05-22T09:27:09;100867.32;;;17.78;78.96
11499;BME280;5806;48.748;9.278;2023-05-22T09:29:50;100870.37;;;17.76;79.41
11499;BME280;5806;48.748;9.278;2023-05-22T09:32:18;100868.41;;;17.82;79.36
11499;BME280;5806;48.748;9.278;2023-05-22T09:34:46;100870.95;;;17.76;79.18
11499;BME280;5806;48.748;9.278;2023-05-22T09:37:15;100869.55;;;17.78;79.38
11499;BME280;5806;48.748;9.278;2023-05-22T09:39:47;100870.05;;;17.83;79.37
11499;BME280;5806;48.748;9.278;2023-05-22T09:42:16;100871.15;;;17.84;79.41
11499;BME280;5806;48.748;9.278;2023-05-22T09:44:50;100868.94;;;17.86;79.64
11499;BME280;5806;48.748;9.278;2023-05-22T09:47:18;100868.06;;;17.91;79.67
11499;BME280;5806;48.748;9.278;2023-05-22T09:49:46;100872.49;;;17.89;79.31
11499;BME280;5806;48.748;9.278;2023-05-22T09:52:14;100879.12;;;17.91;80.00
11499;BME280;5806;48.748;9.278;2023-05-22T09:54:54;100874.70;;;17.92;79.61
11499;BME280;5806;48.748;9.278;2023-05-22T09:57:24;100870.05;;;17.88;79.99
11499;BME280;5806;48.748;9.278;2023-05-22T09:59:54;100879.41;;;17.89;79.82
11499;BME280;5806;48.748;9.278;2023-05-22T10:02:25;100876.90;;;17.95;79.74
11499;BME280;5806;48.748;9.278;2023-05-22T10:04:53;100880.23;;;17.92;80.34
11499;BME280;5806;48.748;9.278;2023-05-22T10:07:40;100879.97;;;17.91;80.68
11499;BME280;5806;48.748;9.278;2023-05-22T10:10:08;100873.31;;;17.92;80.41
11499;BME280;5806;48.748;9.278;2023-05-22T10:13:00;100880.80;;;17.89;79.45
11499;BME280;5806;48.748;9.278;2023-05-22T10:15:26;100879.66;;;17.95;79.71
11499;BME280;5806;48.748;9.278;2023-05-22T10:17:54;100882.62;;;18.09;79.44
11499;BME280;5806;48.748;9.278;2023-05-22T10:20:27;100873.45;;;18.11;78.93
11499;BME280;5806;48.748;9.278;2023-05-22T10:22:55;100882.64;;;18.06;78.46
11499;BME280;5806;48.748;9.278;2023-05-22T10:25:23;100880.70;;;18.04;77.87
11499;BME280;5806;48.748;9.278;2023-05-22T10:27:52;100877.73;;;17.93;78.38
11499;BME280;5806;48.748;9.278;2023-05-22T10:30:49;100882.17;;;17.94;78.36
11499;BME280;5806;48.748;9.278;2023-05-22T10:33:18;100877.73;;;17.93;78.25
11499;BME280;5806;48.748;9.278;2023-05-22T10:35:53;100878.78;;;18.00;78.38
11499;BME280;5806;48.748;9.278;2023-05-22T10:40:59;100879.60;;;18.03;78.61
11499;BME280;5806;48.748;9.278;2023-05-22T10:43:29;100879.89;;;18.01;79.07
11499;BME280;5806;48.748;9.278;2023-05-22T10:46:04;100876.81;;;18.05;78.42
11499;BME280;5806;48.748;9.278;2023-05-22T10:48:39;100875.34;;;18.18;78.50
11499;BME280;5806;48.748;9.278;2023-05-22T10:51:07;100877.30;;;18.15;78.67
11499;BME280;5806;48.748;9.278;2023-05-22T10:53:36;100861.74;;;18.21;77.59
11499;BME280;5806;48.748;9.278;2023-05-22T10:56:11;100865.04;;;18.26;77.17
11499;BME280;5806;48.748;9.278;2023-05-22T10:58:44;100860.84;;;18.31;76.90
11499;BME280;5806;48.748;9.278;2023-05-22T11:01:16;100858.93;;;18.29;77.02
11499;BME280;5806;48.748;9.278;2023-05-22T11:03:56;100860.55;;;18.32;77.50
11499;BME280;5806;48.748;9.278;2023-05-22T11:09:32;100853.33;;;18.39;77.55
11499;BME280;5806;48.748;9.278;2023-05-22T11:14:55;100858.18;;;18.52;76.29
11499;BME280;5806;48.748;9.278;2023-05-22T11:17:30;100855.41;;;18.52;76.32
11499;BME280;5806;48.748;9.278;2023-05-22T11:20:11;100854.52;;;18.59;76.71
11499;BME280;5806;48.748;9.278;2023-05-22T11:22:43;100855.33;;;18.62;76.54
11499;BME280;5806;48.748;9.278;2023-05-22T11:25:16;100853.37;;;18.62;76.04
11499;BME280;5806;48.748;9.278;2023-05-22T11:27:49;100856.57;;;18.74;76.01
11499;BME280;5806;48.748;9.278;2023-05-22T11:30:15;100859.86;;;18.79;75.68
11499;BME280;5806;48.748;9.278;2023-05-22T11:32:44;100853.48;;;18.78;74.87
11499;BME280;5806;48.748;9.278;2023-05-22T11:35:14;100852.42;;;18.77;75.75
11499;BME280;5806;48.748;9.278;2023-05-22T11:37:42;100853.80;;;18.74;75.50
11499;BME280;5806;48.748;9.278;2023-05-22T11:40:12;100858.09;;;18.88;74.46
11499;BME280;5806;48.748;9.278;2023-05-22T11:42:39;100853.81;;;19.00;74.84
11499;BME280;5806;48.748;9.278;2023-05-22T11:45:07;100848.52;;;19.01;73.91
11499;BME280;5806;48.748;9.278;2023-05-22T11:47:36;100848.52;;;19.01;73.91
11499;BME280;5806;48.748;9.278;2023-05-22T11:50:06;100846.66;;;18.94;74.34
11499;BME280;5806;48.748;9.278;2023-05-22T11:52:35;100848.10;;;18.89;73.48
11499;BME280;5806;48.748;9.278;2023-05-22T11:55:06;100840.50;;;19.00;73.75
11499;BME280;5806;48.748;9.278;2023-05-22T11:57:35;100825.98;;;19.08;73.43
11499;BME280;5806;48.748;9.278;2023-05-22T12:00:04;100834.20;;;19.18;72.83
11499;BME280;5806;48.748;9.278;2023-05-22T12:02:33;100834.20;;;19.18;72.83
11499;BME280;5806;48.748;9.278;2023-05-22T12:05:02;100832.33;;;19.11;74.05
11499;BME280;5806;48.748;9.278;2023-05-22T12:07:30;100830.25;;;19.24;72.83
11499;BME280;5806;48.748;9.278;2023-05-22T12:09:58;100831.64;;;19.21;73.46
11499;BME280;5806;48.748;9.278;2023-05-22T12:12:26;100824.05;;;19.32;73.50
11499;BME280;5806;48.748;9.278;2023-05-22T12:14:53;100825.16;;;19.52;71.61
11499;BME280;5806;48.748;9.278;2023-05-22T12:17:22;100826.47;;;19.57;71.88
11499;BME280;5806;48.748;9.278;2023-05-22T12:19:49;100823.98;;;19.58;71.50
11499;BME280;5806;48.748;9.278;2023-05-22T12:22:17;100817.72;;;19.69;71.54
11499;BME280;5806;48.748;9.278;2023-05-22T12:24:50;100816.91;;;19.84;69.97
11499;BME280;5806;48.748;9.278;2023-05-22T12:27:18;100816.48;;;19.93;71.55
11499;BME280;5806;48.748;9.278;2023-05-22T12:29:45;100812.64;;;20.08;70.58
11499;BME280;5806;48.748;9.278;2023-05-22T12:32:13;100811.66;;;19.83;70.50
11499;BME280;5806;48.748;9.278;2023-05-22T12:34:44;100813.00;;;19.85;72.15
11499;BME280;5806;48.748;9.278;2023-05-22T12:37:22;100813.13;;;19.78;70.98
11499;BME280;5806;48.748;9.278;2023-05-22T12:39:55;100801.28;;;20.07;71.00
11499;BME280;5806;48.748;9.278;2023-05-22T12:42:23;100801.28;;;20.07;71.00
11499;BME280;5806;48.748;9.278;2023-05-22T12:44:55;100809.05;;;20.10;69.86
11499;BME280;5806;48.748;9.278;2023-05-22T12:47:25;100802.94;;;20.10;70.00
11499;BME280;5806;48.748;9.278;2023-05-22T12:49:52;100802.84;;;20.15;69.26
11499;BME280;5806;48.748;9.278;2023-05-22T12:52:19;100797.89;;;20.28;69.29
11499;BME280;5806;48.748;9.278;2023-05-22T12:54:47;100802.61;;;20.28;69.28
11499;BME280;5806;48.748;9.278;2023-05-22T12:57:14;100800.41;;;20.27;69.87
11499;BME280;5806;48.748;9.278;2023-05-22T12:59:42;100801.41;;;20.34;70.63
11499;BME280;5806;48.748;9.278;2023-05-22T13:02:09;100803.88;;;20.51;69.29
11499;BME280;5806;48.748;9.278;2023-05-22T13:04:37;100803.05;;;20.35;69.16
11499;BME280;5806;48.748;9.278;2023-05-22T13:07:04;100800.37;;;20.30;69.56
11499;BME280;5806;48.748;9.278;2023-05-22T13:09:32;100794.27;;;20.28;70.44
11499;BME280;5806;48.748;9.278;2023-05-22T13:11:59;100798.82;;;20.53;69.45
11499;BME280;5806;48.748;9.278;2023-05-22T13:14:27;100799.80;;;20.46;69.89
11499;BME280;5806;48.748;9.278;2023-05-22T13:16:54;100800.86;;;20.48;68.94
11499;BME280;5806;48.748;9.278;2023-05-22T13:19:21;100802.78;;;20.50;69.02
11499;BME280;5806;48.748;9.278;2023-05-22T13:21:49;100795.23;;;20.53;68.83